sensor_id;sensor_type;location;lat;lon;timestamp;P1;durP1;ratioP1;P2;durP2;ratioP2
76121;SDS011;70471;53.200;6.080;2023-06-22T00:00:31;3.80;;;2.40;;
76121;SDS011;70471;53.200;6.080;2023-06-22T00:05:23;2.25;;;1.90;;
76121;SDS011;70471;53.200;6.080;2023-06-22T00:10:14;3.50;;;1.90;;
76121;SDS011;70471;53.200;6.080;2023-06-22T00:15:07;2.92;;;2.10;;
76121;SDS011;70471;53.200;6.080;2023-06-22T00:19:59;3.47;;;2.30;;
76121;SDS011;70471;53.200;6.080;2023-06-22T00:24:51;4.28;;;2.22;;
76121;SDS011;70471;53.200;6.080;2023-06-22T00:29:42;3.25;;;2.25;;
76121;SDS011;70471;53.200;6.080;2023-06-22T00:34:35;3.20;;;2.45;;
76121;SDS011;70471;53.200;6.080;2023-06-22T00:39:26;3.20;;;2.25;;
76121;SDS011;70471;53.200;6.080;2023-06-22T00:44:18;2.92;;;1.98;;
76121;SDS011;70471;53.200;6.080;2023-06-22T00:49:09;2.78;;;2.13;;
76121;SDS011;70471;53.200;6.080;2023-06-22T00:54:02;2.78;;;2.25;;
76121;SDS011;70471;53.200;6.080;2023-06-22T00:58:55;3.20;;;1.98;;
76121;SDS011;70471;53.200;6.080;2023-06-22T01:03:47;3.63;;;2.38;;
76121;SDS011;70471;53.200;6.080;2023-06-22T01:08:42;2.80;;;2.17;;
76121;SDS011;70471;53.200;6.080;2023-06-22T01:13:43;2.20;;;1.98;;
76121;SDS011;70471;53.200;6.080;2023-06-22T01:18:40;3.25;;;2.33;;
76121;SDS011;70471;53.200;6.080;2023-06-22T01:23:38;2.55;;;1.77;;
76121;SDS011;70471;53.200;6.080;2023-06-22T01:28:43;2.97;;;2.35;;
76121;SDS011;70471;53.200;6.080;2023-06-22T01:33:37;3.15;;;2.38;;
76121;SDS011;70471;53.200;6.080;2023-06-22T01:38:32;2.97;;;2.47;;
76121;SDS011;70471;53.200;6.080;2023-06-22T01:43:26;3.60;;;2.15;;
76121;SDS011;70471;53.200;6.080;2023-06-22T01:48:20;2.90;;;2.00;;
76121;SDS011;70471;53.200;6.080;2023-06-22T01:53:12;1.85;;;1.65;;
76121;SDS011;70471;53.200;6.080;2023-06-22T01:58:03;2.30;;;2.10;;
76121;SDS011;70471;53.200;6.080;2023-06-22T02:02:56;2.85;;;2.55;;
76121;SDS011;70471;53.200;6.080;2023-06-22T02:07:53;2.30;;;1.77;;
76121;SDS011;70471;53.200;6.080;2023-06-22T02:12:53;2.40;;;1.95;;
76121;SDS011;70471;53.200;6.080;2023-06-22T02:17:45;2.50;;;2.00;;
76121;SDS011;70471;53.200;6.080;2023-06-22T02:22:38;1.95;;;1.55;;
76121;SDS011;70471;53.200;6.080;2023-06-22T02:27:31;3.10;;;2.25;;
76121;SDS011;70471;53.200;6.080;2023-06-22T02:32:22;2.92;;;2.05;;
76121;SDS011;70471;53.200;6.080;2023-06-22T02:37:14;2.83;;;2.13;;
76121;SDS011;70471;53.200;6.080;2023-06-22T02:42:06;3.30;;;2.97;;
76121;SDS011;70471;53.200;6.080;2023-06-22T02:46:59;2.47;;;2.10;;
76121;SDS011;70471;53.200;6.080;2023-06-22T02:51:50;2.03;;;1.60;;
76121;SDS011;70471;53.200;6.080;2023-06-22T02:56:42;2.58;;;1.50;;
76121;SDS011;70471;53.200;6.080;2023-06-22T03:01:34;2.53;;;1.88;;
76121;SDS011;70471;53.200;6.080;2023-06-22T03:06:31;1.60;;;1.50;;
76121;SDS011;70471;53.200;6.080;2023-06-22T03:11:22;1.80;;;1.60;;
76121;SDS011;70471;53.200;6.080;2023-06-22T03:16:13;2.08;;;1.88;;
76121;SDS011;70471;53.200;6.080;2023-06-22T03:21:05;1.42;;;1.33;;
76121;SDS011;70471;53.200;6.080;2023-06-22T03:25:58;2.15;;;1.45;;
76121;SDS011;70471;53.200;6.080;2023-06-22T03:30:49;1.50;;;1.40;;
76121;SDS011;70471;53.200;6.080;2023-06-22T03:35:41;2.28;;;2.08;;
76121;SDS011;70471;53.200;6.080;2023-06-22T03:40:32;1.45;;;1.23;;
76121;SDS011;70471;53.200;6.080;2023-06-22T03:45:25;2.63;;;1.25;;
76121;SDS011;70471;53.200;6.080;2023-06-22T03:50:16;1.13;;;1.02;;
76121;SDS011;70471;53.200;6.080;2023-06-22T03:55:10;1.67;;;1.35;;
76121;SDS011;70471;53.200;6.080;2023-06-22T04:00:02;2.08;;;1.13;;
76121;SDS011;70471;53.200;6.080;2023-06-22T04:04:57;1.38;;;1.20;;
76121;SDS011;70471;53.200;6.080;2023-06-22T04:09:48;1.77;;;1.52;;
76121;SDS011;70471;53.200;6.080;2023-06-22T04:14:39;2.00;;;1.73;;
76121;SDS011;70471;53.200;6.080;2023-06-22T04:19:31;1.60;;;1.50;;
76121;SDS011;70471;53.200;6.080;2023-06-22T04:24:24;4.40;;;2.70;;
76121;SDS011;70471;53.200;6.080;2023-06-22T04:29:15;3.20;;;2.42;;
76121;SDS011;70471;53.200;6.080;2023-06-22T04:34:07;2.92;;;2.42;;
76121;SDS011;70471;53.200;6.080;2023-06-22T04:38:59;6.03;;;4.03;;
76121;SDS011;70471;53.200;6.080;2023-06-22T04:43:51;2.17;;;1.85;;
76121;SDS011;70471;53.200;6.080;2023-06-22T04:48:43;3.30;;;2.58;;
76121;SDS011;70471;53.200;6.080;2023-06-22T04:53:35;5.57;;;2.70;;
76121;SDS011;70471;53.200;6.080;2023-06-22T04:58:26;2.15;;;1.95;;
76121;SDS011;70471;53.200;6.080;2023-06-22T05:03:24;2.58;;;1.80;;
76121;SDS011;70471;53.200;6.080;2023-06-22T05:08:16;2.20;;;1.65;;
76121;SDS011;70471;53.200;6.080;2023-06-22T05:13:08;4.38;;;2.28;;
76121;SDS011;70471;53.200;6.080;2023-06-22T05:17:59;2.63;;;2.05;;
76121;SDS011;70471;53.200;6.080;2023-06-22T05:22:56;3.10;;;2.22;;
76121;SDS011;70471;53.200;6.080;2023-06-22T05:27:48;4.18;;;2.00;;
76121;SDS011;70471;53.200;6.080;2023-06-22T05:32:41;3.20;;;1.75;;
76121;SDS011;70471;53.200;6.080;2023-06-22T05:37:34;3.45;;;1.67;;
76121;SDS011;70471;53.200;6.080;2023-06-22T05:42:27;2.25;;;1.40;;
76121;SDS011;70471;53.200;6.080;2023-06-22T05:47:18;2.25;;;1.90;;
76121;SDS011;70471;53.200;6.080;2023-06-22T05:52:10;3.30;;;2.38;;
76121;SDS011;70471;53.200;6.080;2023-06-22T05:57:01;3.38;;;2.00;;
76121;SDS011;70471;53.200;6.080;2023-06-22T06:01:54;3.47;;;1.77;;
76121;SDS011;70471;53.200;6.080;2023-06-22T06:06:45;2.50;;;2.00;;
76121;SDS011;70471;53.200;6.080;2023-06-22T06:11:39;2.50;;;1.73;;
76121;SDS011;70471;53.200;6.080;2023-06-22T06:16:30;1.48;;;1.33;;
76121;SDS011;70471;53.200;6.080;2023-06-22T06:21:24;2.10;;;1.45;;
76121;SDS011;70471;53.200;6.080;2023-06-22T06:26:15;2.83;;;1.88;;
76121;SDS011;70471;53.200;6.080;2023-06-22T06:31:07;3.30;;;2.13;;
76121;SDS011;70471;53.200;6.080;2023-06-22T06:35:59;4.50;;;2.17;;
76121;SDS011;70471;53.200;6.080;2023-06-22T06:40:53;3.03;;;2.03;;
76121;SDS011;70471;53.200;6.080;2023-06-22T06:45:45;2.13;;;1.88;;
76121;SDS011;70471;53.200;6.080;2023-06-22T06:50:36;3.50;;;1.88;;
76121;SDS011;70471;53.200;6.080;2023-06-22T06:55:28;2.17;;;1.98;;
76121;SDS011;70471;53.200;6.080;2023-06-22T07:00:24;3.22;;;1.92;;
76121;SDS011;70471;53.200;6.080;2023-06-22T07:05:15;4.00;;;2.20;;
76121;SDS011;70471;53.200;6.080;2023-06-22T07:10:07;3.08;;;2.17;;
76121;SDS011;70471;53.200;6.080;2023-06-22T07:15:01;3.40;;;2.15;;
76121;SDS011;70471;53.200;6.080;2023-06-22T07:19:54;4.47;;;2.97;;
76121;SDS011;70471;53.200;6.080;2023-06-22T07:24:46;5.80;;;2.90;;
76121;SDS011;70471;53.200;6.080;2023-06-22T07:29:37;4.25;;;2.58;;
76121;SDS011;70471;53.200;6.080;2023-06-22T07:34:30;3.92;;;2.90;;
76121;SDS011;70471;53.200;6.080;2023-06-22T07:39:23;4.95;;;2.80;;
76121;SDS011;70471;53.200;6.080;2023-06-22T07:44:16;4.80;;;2.72;;
76121;SDS011;70471;53.200;6.080;2023-06-22T07:49:08;3.40;;;2.50;;
76121;SDS011;70471;53.200;6.080;2023-06-22T07:53:59;4.65;;;2.20;;
76121;SDS011;70471;53.200;6.080;2023-06-22T07:58:52;2.70;;;1.95;;
76121;SDS011;70471;53.200;6.080;2023-06-22T08:03:45;3.88;;;2.13;;
76121;SDS011;70471;53.200;6.080;2023-06-22T08:08:36;3.65;;;2.20;;
76121;SDS011;70471;53.200;6.080;2023-06-22T08:13:28;3.53;;;2.53;;
76121;SDS011;70471;53.200;6.080;2023-06-22T08:18:21;2.80;;;1.80;;
76121;SDS011;70471;53.200;6.080;2023-06-22T08:23:12;2.17;;;1.80;;
76121;SDS011;70471;53.200;6.080;2023-06-22T08:28:04;2.78;;;1.80;;
76121;SDS011;70471;53.200;6.080;2023-06-22T08:32:56;3.45;;;2.28;;
76121;SDS011;70471;53.200;6.080;2023-06-22T08:37:48;3.53;;;2.47;;
76121;SDS011;70471;53.200;6.080;2023-06-22T08:42:42;4.10;;;2.45;;
76121;SDS011;70471;53.200;6.080;2023-06-22T08:47:33;3.40;;;2.30;;
76121;SDS011;70471;53.200;6.080;2023-06-22T08:52:25;3.00;;;1.88;;
76121;SDS011;70471;53.200;6.080;2023-06-22T08:57:18;4.72;;;2.13;;
76121;SDS011;70471;53.200;6.080;2023-06-22T09:02:10;3.00;;;2.00;;
76121;SDS011;70471;53.200;6.080;2023-06-22T09:07:02;3.03;;;1.70;;
76121;SDS011;70471;53.200;6.080;2023-06-22T09:11:54;3.35;;;1.70;;
76121;SDS011;70471;53.200;6.080;2023-06-22T09:16:47;2.80;;;2.10;;
76121;SDS011;70471;53.200;6.080;2023-06-22T09:21:38;3.88;;;2.58;;
76121;SDS011;70471;53.200;6.080;2023-06-22T09:26:30;2.05;;;1.77;;
76121;SDS011;70471;53.200;6.080;2023-06-22T09:31:21;1.90;;;1.55;;
76121;SDS011;70471;53.200;6.080;2023-06-22T09:36:16;1.90;;;1.20;;
76121;SDS011;70471;53.200;6.080;2023-06-22T09:41:08;2.28;;;1.60;;
76121;SDS011;70471;53.200;6.080;2023-06-22T09:45:59;2.65;;;2.20;;
76121;SDS011;70471;53.200;6.080;2023-06-22T09:50:52;2.53;;;1.67;;
76121;SDS011;70471;53.200;6.080;2023-06-22T09:55:44;2.20;;;1.25;;
76121;SDS011;70471;53.200;6.080;2023-06-22T10:00:36;1.17;;;0.98;;
76121;SDS011;70471;53.200;6.080;2023-06-22T10:05:27;1.13;;;1.02;;
76121;SDS011;70471;53.200;6.080;2023-06-22T10:10:19;1.50;;;1.05;;
76121;SDS011;70471;53.200;6.080;2023-06-22T10:15:12;1.10;;;1.00;;
76121;SDS011;70471;53.200;6.080;2023-06-22T10:20:04;1.63;;;1.00;;
76121;SDS011;70471;53.200;6.080;2023-06-22T10:25:01;1.15;;;1.05;;
76121;SDS011;70471;53.200;6.080;2023-06-22T10:29:52;1.77;;;1.05;;
76121;SDS011;70471;53.200;6.080;2023-06-22T10:34:46;1.80;;;1.05;;
76121;SDS011;70471;53.200;6.080;2023-06-22T10:39:37;1.25;;;0.80;;
76121;SDS011;70471;53.200;6.080;2023-06-22T10:44:29;0.95;;;0.90;;
76121;SDS011;70471;53.200;6.080;2023-06-22T10:49:20;1.40;;;1.10;;
76121;SDS011;70471;53.200;6.080;2023-06-22T10:54:13;2.45;;;1.13;;
76121;SDS011;70471;53.200;6.080;2023-06-22T10:59:07;1.55;;;1.20;;
76121;SDS011;70471;53.200;6.080;2023-06-22T11:03:58;1.55;;;1.00;;
76121;SDS011;70471;53.200;6.080;2023-06-22T11:08:50;1.30;;;0.98;;
76121;SDS011;70471;53.200;6.080;2023-06-22T11:13:43;2.13;;;1.10;;
76121;SDS011;70471;53.200;6.080;2023-06-22T11:18:34;2.13;;;1.00;;
76121;SDS011;70471;53.200;6.080;2023-06-22T11:23:25;1.38;;;1.15;;
76121;SDS011;70471;53.200;6.080;2023-06-22T11:28:18;2.55;;;1.30;;
76121;SDS011;70471;53.200;6.080;2023-06-22T11:33:11;1.10;;;0.90;;
76121;SDS011;70471;53.200;6.080;2023-06-22T11:38:02;1.65;;;1.02;;
76121;SDS011;70471;53.200;6.080;2023-06-22T11:42:54;1.73;;;0.95;;
76121;SDS011;70471;53.200;6.080;2023-06-22T11:47:46;1.20;;;1.10;;
76121;SDS011;70471;53.200;6.080;2023-06-22T11:52:39;1.33;;;0.82;;
76121;SDS011;70471;53.200;6.080;2023-06-22T11:57:32;2.22;;;1.08;;
76121;SDS011;70471;53.200;6.080;2023-06-22T12:02:24;2.15;;;1.00;;
76121;SDS011;70471;53.200;6.080;2023-06-22T12:07:15;1.10;;;0.90;;
76121;SDS011;70471;53.200;6.080;2023-06-22T12:12:08;2.20;;;0.93;;
76121;SDS011;70471;53.200;6.080;2023-06-22T12:17:00;2.22;;;1.30;;
76121;SDS011;70471;53.200;6.080;2023-06-22T12:21:52;1.80;;;1.42;;
76121;SDS011;70471;53.200;6.080;2023-06-22T12:26:43;2.08;;;1.40;;
76121;SDS011;70471;53.200;6.080;2023-06-22T12:31:36;3.70;;;1.42;;
76121;SDS011;70471;53.200;6.080;2023-06-22T12:36:28;1.60;;;1.13;;
76121;SDS011;70471;53.200;6.080;2023-06-22T12:41:20;2.08;;;1.02;;
76121;SDS011;70471;53.200;6.080;2023-06-22T12:46:11;1.42;;;1.02;;
76121;SDS011;70471;53.200;6.080;2023-06-22T12:51:04;1.58;;;1.13;;
76121;SDS011;70471;53.200;6.080;2023-06-22T12:55:55;1.42;;;1.00;;
76121;SDS011;70471;53.200;6.080;2023-06-22T13:00:48;1.25;;;1.00;;
76121;SDS011;70471;53.200;6.080;2023-06-22T13:05:40;1.65;;;1.00;;
76121;SDS011;70471;53.200;6.080;2023-06-22T13:10:32;1.63;;;0.98;;
76121;SDS011;70471;53.200;6.080;2023-06-22T13:15:24;1.20;;;0.85;;
76121;SDS011;70471;53.200;6.080;2023-06-22T13:20:15;1.08;;;0.98;;
76121;SDS011;70471;53.200;6.080;2023-06-22T13:25:07;1.02;;;0.93;;
76121;SDS011;70471;53.200;6.080;2023-06-22T13:30:03;1.77;;;0.68;;
76121;SDS011;70471;53.200;6.080;2023-06-22T13:34:55;3.10;;;1.73;;
76121;SDS011;70471;53.200;6.080;2023-06-22T13:39:47;1.17;;;0.73;;
76121;SDS011;70471;53.200;6.080;2023-06-22T13:44:38;1.75;;;0.95;;
76121;SDS011;70471;53.200;6.080;2023-06-22T13:49:31;0.98;;;0.80;;
76121;SDS011;70471;53.200;6.080;2023-06-22T13:54:22;2.10;;;0.80;;
76121;SDS011;70471;53.200;6.080;2023-06-22T13:59:14;0.65;;;0.65;;
76121;SDS011;70471;53.200;6.080;2023-06-22T14:04:05;1.77;;;0.73;;
76121;SDS011;70471;53.200;6.080;2023-06-22T14:08:58;1.38;;;0.85;;
76121;SDS011;70471;53.200;6.080;2023-06-22T14:13:49;1.65;;;0.98;;
76121;SDS011;70471;53.200;6.080;2023-06-22T14:18:42;0.80;;;0.63;;
76121;SDS011;70471;53.200;6.080;2023-06-22T14:23:33;1.10;;;0.70;;
76121;SDS011;70471;53.200;6.080;2023-06-22T14:28:26;0.82;;;0.50;;
76121;SDS011;70471;53.200;6.080;2023-06-22T14:33:17;0.80;;;0.70;;
76121;SDS011;70471;53.200;6.080;2023-06-22T14:38:09;0.90;;;0.63;;
76121;SDS011;70471;53.200;6.080;2023-06-22T14:43:00;0.98;;;0.60;;
76121;SDS011;70471;53.200;6.080;2023-06-22T14:47:53;1.15;;;0.73;;
76121;SDS011;70471;53.200;6.080;2023-06-22T14:52:44;0.95;;;0.65;;
76121;SDS011;70471;53.200;6.080;2023-06-22T14:57:36;1.25;;;0.88;;
76121;SDS011;70471;53.200;6.080;2023-06-22T15:02:27;1.02;;;0.65;;
76121;SDS011;70471;53.200;6.080;2023-06-22T15:07:20;1.13;;;0.77;;
76121;SDS011;70471;53.200;6.080;2023-06-22T15:12:12;1.17;;;0.70;;
76121;SDS011;70471;53.200;6.080;2023-06-22T15:17:04;0.98;;;0.60;;
76121;SDS011;70471;53.200;6.080;2023-06-22T15:21:56;1.00;;;0.50;;
76121;SDS011;70471;53.200;6.080;2023-06-22T15:26:49;0.90;;;0.50;;
76121;SDS011;70471;53.200;6.080;2023-06-22T15:31:40;1.08;;;0.60;;
76121;SDS011;70471;53.200;6.080;2023-06-22T15:36:32;1.25;;;0.93;;
76121;SDS011;70471;53.200;6.080;2023-06-22T15:41:24;1.70;;;0.80;;
76121;SDS011;70471;53.200;6.080;2023-06-22T15:46:16;0.90;;;0.50;;
76121;SDS011;70471;53.200;6.080;2023-06-22T15:51:08;0.50;;;0.50;;
76121;SDS011;70471;53.200;6.080;2023-06-22T15:56:00;0.63;;;0.43;;
76121;SDS011;70471;53.200;6.080;2023-06-22T16:00:52;0.70;;;0.60;;
76121;SDS011;70471;53.200;6.080;2023-06-22T16:05:45;0.65;;;0.60;;
76121;SDS011;70471;53.200;6.080;2023-06-22T16:10:37;0.68;;;0.50;;
76121;SDS011;70471;53.200;6.080;2023-06-22T16:15:28;0.82;;;0.60;;
76121;SDS011;70471;53.200;6.080;2023-06-22T16:20:20;0.50;;;0.43;;
76121;SDS011;70471;53.200;6.080;2023-06-22T16:25:13;1.20;;;0.60;;
76121;SDS011;70471;53.200;6.080;2023-06-22T16:30:05;0.50;;;0.30;;
76121;SDS011;70471;53.200;6.080;2023-06-22T16:34:58;0.65;;;0.40;;
76121;SDS011;70471;53.200;6.080;2023-06-22T16:39:49;1.33;;;0.70;;
76121;SDS011;70471;53.200;6.080;2023-06-22T16:44:42;0.85;;;0.60;;
76121;SDS011;70471;53.200;6.080;2023-06-22T16:49:33;1.05;;;0.40;;
76121;SDS011;70471;53.200;6.080;2023-06-22T16:54:27;0.73;;;0.57;;
76121;SDS011;70471;53.200;6.080;2023-06-22T16:59:20;0.50;;;0.35;;
76121;SDS011;70471;53.200;6.080;2023-06-22T17:04:13;0.75;;;0.52;;
76121;SDS011;70471;53.200;6.080;2023-06-22T17:09:11;1.33;;;0.60;;
76121;SDS011;70471;53.200;6.080;2023-06-22T17:14:05;0.60;;;0.60;;
76121;SDS011;70471;53.200;6.080;2023-06-22T17:18:57;0.68;;;0.55;;
76121;SDS011;70471;53.200;6.080;2023-06-22T17:23:54;0.70;;;0.50;;
76121;SDS011;70471;53.200;6.080;2023-06-22T17:28:49;2.88;;;0.80;;
76121;SDS011;70471;53.200;6.080;2023-06-22T17:33:41;0.52;;;0.47;;
76121;SDS011;70471;53.200;6.080;2023-06-22T17:38:33;0.82;;;0.63;;
76121;SDS011;70471;53.200;6.080;2023-06-22T17:43:28;1.20;;;0.60;;
76121;SDS011;70471;53.200;6.080;2023-06-22T17:48:20;0.70;;;0.60;;
76121;SDS011;70471;53.200;6.080;2023-06-22T17:53:13;1.20;;;0.70;;
76121;SDS011;70471;53.200;6.080;2023-06-22T17:58:04;0.82;;;0.73;;
76121;SDS011;70471;53.200;6.080;2023-06-22T18:02:57;0.85;;;0.70;;
76121;SDS011;70471;53.200;6.080;2023-06-22T18:07:49;0.70;;;0.60;;
76121;SDS011;70471;53.200;6.080;2023-06-22T18:12:43;0.80;;;0.63;;
76121;SDS011;70471;53.200;6.080;2023-06-22T18:17:36;0.50;;;0.50;;
76121;SDS011;70471;53.200;6.080;2023-06-22T18:22:29;0.88;;;0.73;;
76121;SDS011;70471;53.200;6.080;2023-06-22T18:27:21;1.98;;;0.57;;
76121;SDS011;70471;53.200;6.080;2023-06-22T18:32:13;0.60;;;0.47;;
76121;SDS011;70471;53.200;6.080;2023-06-22T18:37:05;0.88;;;0.70;;
76121;SDS011;70471;53.200;6.080;2023-06-22T18:42:01;0.88;;;0.60;;
76121;SDS011;70471;53.200;6.080;2023-06-22T18:46:56;0.65;;;0.60;;
76121;SDS011;70471;53.200;6.080;2023-06-22T18:51:49;1.08;;;0.50;;
76121;SDS011;70471;53.200;6.080;2023-06-22T18:56:51;1.20;;;0.60;;
76121;SDS011;70471;53.200;6.080;2023-06-22T19:01:45;0.88;;;0.70;;
76121;SDS011;70471;53.200;6.080;2023-06-22T19:06:53;1.00;;;0.60;;
76121;SDS011;70471;53.200;6.080;2023-06-22T19:11:45;1.17;;;0.70;;
76121;SDS011;70471;53.200;6.080;2023-06-22T19:16:37;1.20;;;0.80;;
76121;SDS011;70471;53.200;6.080;2023-06-22T19:21:31;0.63;;;0.50;;
76121;SDS011;70471;53.200;6.080;2023-06-22T19:26:23;0.50;;;0.40;;
76121;SDS011;70471;53.200;6.080;2023-06-22T19:31:14;0.73;;;0.50;;
76121;SDS011;70471;53.200;6.080;2023-06-22T19:36:07;0.82;;;0.50;;
76121;SDS011;70471;53.200;6.080;2023-06-22T19:41:00;0.80;;;0.70;;
76121;SDS011;70471;53.200;6.080;2023-06-22T19:45:52;1.20;;;0.73;;
76121;SDS011;70471;53.200;6.080;2023-06-22T19:50:44;0.70;;;0.55;;
76121;SDS011;70471;53.200;6.080;2023-06-22T19:55:36;0.68;;;0.65;;
76121;SDS011;70471;53.200;6.080;2023-06-22T20:00:31;0.80;;;0.60;;
76121;SDS011;70471;53.200;6.080;2023-06-22T20:05:24;1.90;;;0.93;;
76121;SDS011;70471;53.200;6.080;2023-06-22T20:10:17;1.98;;;0.60;;
76121;SDS011;70471;53.200;6.080;2023-06-22T20:15:13;1.40;;;0.65;;
76121;SDS011;70471;53.200;6.080;2023-06-22T20:20:19;1.00;;;0.65;;
76121;SDS011;70471;53.200;6.080;2023-06-22T20:25:11;0.93;;;0.80;;
76121;SDS011;70471;53.200;6.080;2023-06-22T20:30:11;1.88;;;1.00;;
76121;SDS011;70471;53.200;6.080;2023-06-22T20:35:04;1.35;;;0.80;;
76121;SDS011;70471;53.200;6.080;2023-06-22T20:39:57;0.75;;;0.60;;
76121;SDS011;70471;53.200;6.080;2023-06-22T20:44:48;1.23;;;0.80;;
76121;SDS011;70471;53.200;6.080;2023-06-22T20:49:40;1.48;;;0.80;;
76121;SDS011;70471;53.200;6.080;2023-06-22T20:54:32;1.27;;;0.90;;
76121;SDS011;70471;53.200;6.080;2023-06-22T20:59:25;1.40;;;0.90;;
76121;SDS011;70471;53.200;6.080;2023-06-22T21:04:16;0.68;;;0.60;;
76121;SDS011;70471;53.200;6.080;2023-06-22T21:09:08;1.30;;;0.70;;
76121;SDS011;70471;53.200;6.080;2023-06-22T21:13:59;0.93;;;0.60;;
76121;SDS011;70471;53.200;6.080;2023-06-22T21:18:52;2.10;;;0.93;;
76121;SDS011;70471;53.200;6.080;2023-06-22T21:23:44;1.65;;;0.68;;
76121;SDS011;70471;53.200;6.080;2023-06-22T21:28:35;1.05;;;0.63;;
76121;SDS011;70471;53.200;6.080;2023-06-22T21:33:27;0.40;;;0.40;;
76121;SDS011;70471;53.200;6.080;2023-06-22T21:38:19;0.75;;;0.60;;
76121;SDS011;70471;53.200;6.080;2023-06-22T21:43:11;1.77;;;0.70;;
76121;SDS011;70471;53.200;6.080;2023-06-22T21:48:04;2.55;;;0.98;;
76121;SDS011;70471;53.200;6.080;2023-06-22T21:52:55;0.70;;;0.55;;
76121;SDS011;70471;53.200;6.080;2023-06-22T21:57:48;1.13;;;0.88;;
76121;SDS011;70471;53.200;6.080;2023-06-22T22:02:40;0.52;;;0.50;;
76121;SDS011;70471;53.200;6.080;2023-06-22T22:07:31;1.55;;;0.60;;
76121;SDS011;70471;53.200;6.080;2023-06-22T22:12:22;1.15;;;0.60;;
76121;SDS011;70471;53.200;6.080;2023-06-22T22:17:15;1.08;;;0.50;;
76121;SDS011;70471;53.200;6.080;2023-06-22T22:22:07;3.10;;;0.95;;
76121;SDS011;70471;53.200;6.080;2023-06-22T22:26:58;1.10;;;0.80;;
76121;SDS011;70471;53.200;6.080;2023-06-22T22:31:50;2.45;;;1.20;;
76121;SDS011;70471;53.200;6.080;2023-06-22T22:36:43;2.00;;;1.10;;
76121;SDS011;70471;53.200;6.080;2023-06-22T22:41:34;1.77;;;1.30;;
76121;SDS011;70471;53.200;6.080;2023-06-22T22:46:26;2.03;;;1.10;;
76121;SDS011;70471;53.200;6.080;2023-06-22T22:51:18;1.48;;;1.20;;
76121;SDS011;70471;53.200;6.080;2023-06-22T22:56:11;3.35;;;1.20;;
76121;SDS011;70471;53.200;6.080;2023-06-22T23:01:03;1.67;;;1.30;;
76121;SDS011;70471;53.200;6.080;2023-06-22T23:05:54;2.35;;;1.13;;
76121;SDS011;70471;53.200;6.080;2023-06-22T23:10:46;3.83;;;1.48;;
76121;SDS011;70471;53.200;6.080;2023-06-22T23:15:39;2.17;;;1.40;;
76121;SDS011;70471;53.200;6.080;2023-06-22T23:20:30;2.13;;;1.48;;
76121;SDS011;70471;53.200;6.080;2023-06-22T23:25:22;1.88;;;1.30;;
76121;SDS011;70471;53.200;6.080;2023-06-22T23:30:14;1.98;;;1.38;;
76121;SDS011;70471;53.200;6.080;2023-06-22T23:35:08;2.67;;;1.55;;
76121;SDS011;70471;53.200;6.080;2023-06-22T23:40:00;1.95;;;1.40;;
76121;SDS011;70471;53.200;6.080;2023-06-22T23:44:52;2.88;;;1.67;;
76121;SDS011;70471;53.200;6.080;2023-06-22T23:49:43;2.65;;;1.40;;
76121;SDS011;70471;53.200;6.080;2023-06-22T23:54:36;1.95;;;1.30;;
76121;SDS011;70471;53.200;6.080;2023-06-22T23:59:28;2.40;;;1.80;;
